Latest Weather Observations for Smithton

IDT60801

Issued at 7:31 am EDT Thursday 22 February 2018 (issued every 30 minutes, with the page automatically refreshed every 10 minutes)

About weather observations | Map of weather stations | Latest weather observations for TAS | Other Formats
Station Details ID: 091292 Name: SMITHTON AERODROME Lat: -40.83 Lon: 145.08 Height: 7.5 m
Data from the previous 72 hours. | See also: Recent months at Smithton
Date/Time
EDT
Temp
°C
App
Temp
°C
Dew
Point
°C
Rel
Hum
%
Delta-T
°C
Wind Press
QNH
hPa
Press
MSL
hPa
Rain since
9am
mm
Dir  Spd
km/h
Gust
km/h
Spd
kts
Gust
kts
22/07:30am 15.6 13.6 13.8 89 1.0 E 17 22 9 12 1017.3 - 0.0
22/07:00am 15.2 13.1 13.6 90 0.9 E 17 22 9 12 1017.3 - 0.0
22/06:30am 15.2 13.0 13.4 89 1.0 E 17 20 9 11 1017.0 - 0.0
22/06:00am 15.3 13.6 13.7 90 0.9 E 15 20 8 11 1016.8 1016.8 0.0
22/05:30am 15.3 13.2 13.5 89 1.0 E 17 22 9 12 1016.8 - 0.0
22/05:00am 15.3 13.6 13.7 90 0.9 E 15 20 8 11 1016.9 - 0.0
22/04:30am 14.9 13.1 13.4 91 0.8 E 15 20 8 11 1016.4 - 0.0
22/04:00am 14.6 13.2 13.3 92 0.7 E 13 17 7 9 1016.5 - 0.0
22/03:30am 14.6 12.3 13.1 91 0.8 ESE 17 22 9 12 1016.3 - 0.0
22/03:00am 14.5 11.8 12.9 90 0.9 ESE 19 24 10 13 1016.2 1016.2 0.0
22/02:30am 14.6 12.2 12.8 89 1.0 ESE 17 20 9 11 1016.6 - 0.0
22/02:00am 14.8 12.8 12.8 88 1.1 E 15 17 8 9 1017.0 - 0.0
22/01:30am 15.0 13.1 12.9 87 1.2 ESE 15 19 8 10 1017.2 - 0.0
22/01:00am 14.8 12.8 12.8 88 1.1 ESE 15 19 8 10 1017.3 - 0.0
22/12:30am 14.6 12.9 12.5 87 1.1 ESE 13 15 7 8 1017.3 - 0.0
22/12:00am 14.8 12.7 12.5 86 1.3 ESE 15 19 8 10 1017.2 1017.2 0.0
 
Date/Time
EDT
Temp
°C
App
Temp
°C
Dew
Point
°C
Rel
Hum
%
Delta-T
°C
Wind Press
QNH
hPa
Press
MSL
hPa
Rain since
9am
mm
Dir  Spd
km/h
Gust
km/h
Spd
kts
Gust
kts
21/11:30pm 14.7 13.4 12.4 86 1.3 ESE 11 15 6 8 1017.7 - 0.0
21/11:00pm 14.4 12.7 12.3 87 1.1 ESE 13 15 7 8 1017.8 - 0.0
21/10:30pm 14.4 12.6 12.1 86 1.2 ESE 13 15 7 8 1018.1 - 0.0
21/10:00pm 14.8 13.4 12.1 84 1.5 E 11 15 6 8 1018.0 - 0.0
21/09:30pm 15.6 14.3 12.4 81 1.8 E 11 15 6 8 1017.9 - 0.0
21/09:00pm 16.3 14.6 12.5 78 2.1 ESE 13 17 7 9 1017.7 1017.7 0.0
21/08:30pm 16.8 14.0 12.5 76 2.4 E 19 24 10 13 1017.4 - 0.0
21/08:00pm 17.1 14.1 12.4 74 2.6 E 20 28 11 15 1017.1 - 0.0
21/07:30pm 17.5 14.5 12.6 73 2.7 E 20 28 11 15 1017.1 - 0.0
21/07:00pm 17.9 13.8 12.8 72 2.8 E 26 32 14 17 1016.7 - 0.0
21/06:30pm 18.0 13.8 12.5 70 3.1 E 26 35 14 19 1016.7 - 0.0
21/06:00pm 18.3 14.3 13.0 71 3.0 ENE 26 35 14 19 1016.7 1016.7 0.0
21/05:30pm 18.5 13.2 12.5 68 3.3 E 32 43 17 23 1016.5 - 0.0
21/05:00pm 19.0 14.4 12.3 65 3.7 E 28 41 15 22 1016.5 - 0.0
21/04:42pm 18.9 14.3 12.2 65 3.7 E 28 48 15 26 1016.5 - 0.0
21/04:30pm 19.4 14.2 12.7 65 3.8 E 32 39 17 21 1016.9 - 0.0
21/04:00pm 19.9 14.5 12.7 63 4.1 E 33 43 18 23 1016.9 - 0.0
21/03:41pm 20.2 15.6 12.4 61 4.4 E 28 46 15 25 1017.1 - 0.0
21/03:30pm 19.8 15.2 12.3 62 4.2 E 28 41 15 22 1017.1 - 0.0
21/03:00pm 19.6 15.0 12.4 63 4.0 E 28 41 15 22 1017.6 1017.6 0.0
21/02:30pm 19.9 14.0 12.4 62 4.2 E 35 46 19 25 1017.7 - 0.0
21/02:00pm 20.1 14.7 12.3 61 4.4 E 32 48 17 26 1017.8 - 0.0
21/01:49pm 19.7 14.2 12.5 63 4.0 E 33 52 18 28 1017.7 - 0.0
21/01:30pm 18.8 13.1 13.0 69 3.3 E 35 43 19 23 1017.7 - 0.0
21/01:00pm 18.1 12.6 11.9 67 3.4 E 32 43 17 23 1018.1 - 0.0
21/12:30pm 17.4 12.3 11.9 70 3.0 E 30 43 16 23 1018.2 - 0.0
21/12:00pm 17.0 11.5 11.7 71 2.9 E 32 43 17 23 1018.7 1018.7 0.0
21/11:42am 17.4 12.2 11.7 69 3.1 E 30 48 16 26 1018.5 - 0.0
21/11:30am 17.2 10.3 11.7 70 3.0 E 39 52 21 28 1018.3 - 0.0
21/11:20am 17.7 12.1 11.5 67 3.4 E 32 52 17 28 1018.0 - 0.0
21/11:00am 18.3 11.3 11.4 64 3.8 E 39 50 21 27 1017.8 - 0.0
21/10:30am 17.7 10.6 11.0 65 3.6 ENE 39 54 21 29 1018.3 - 0.0
21/10:00am 17.3 11.3 10.7 65 3.5 ENE 33 44 18 24 1018.8 - 0.0
21/09:30am 16.7 10.7 10.1 65 3.5 E 32 43 17 23 1018.8 - 0.0
21/09:00am 16.5 11.2 9.9 65 3.5 E 28 39 15 21 1019.2 1019.2 0.0
21/08:30am 16.3 10.6 9.9 66 3.4 ENE 30 39 16 21 1019.0 - 0.0
21/08:00am 16.2 11.4 10.3 68 3.1 ENE 26 37 14 20 1019.1 - 0.0
21/07:30am 15.9 11.0 10.0 68 3.1 E 26 37 14 20 1018.5 - 0.0
21/07:00am 15.6 10.8 10.4 71 2.7 ENE 26 37 14 20 1018.5 - 0.0
21/06:37am 15.6 10.4 10.4 71 2.7 ENE 28 46 15 25 1018.4 - 0.0
21/06:30am 15.5 9.9 10.3 71 2.7 E 30 39 16 21 1018.3 - 0.0
21/06:00am 15.8 9.9 10.3 70 2.9 ENE 32 52 17 28 1018.5 1018.5 0.0
21/05:51am 15.8 9.7 10.6 71 2.8 ENE 33 52 18 28 1018.2 - 0.0
21/05:30am 15.8 10.3 10.6 71 2.8 ENE 30 43 16 23 1018.5 - 0.0
21/05:00am 15.8 9.9 10.3 70 2.9 ENE 32 46 17 25 1018.4 - 0.0
21/04:34am 15.7 10.1 10.2 70 2.9 ENE 30 48 16 26 1018.2 - 0.0
21/04:30am 15.7 9.2 10.2 70 2.9 ENE 35 48 19 26 1018.2 - 0.0
21/04:00am 15.7 9.6 10.5 71 2.7 ENE 33 46 18 25 1018.4 - 0.0
21/03:30am 15.7 9.6 10.5 71 2.7 ENE 33 43 18 23 1018.5 - 0.0
21/03:00am 15.7 9.7 10.2 70 2.9 ENE 32 41 17 22 1018.8 1018.8 0.0
21/02:30am 15.8 9.9 10.6 71 2.8 ENE 32 46 17 25 1018.7 - 0.0
21/02:00am 15.9 10.0 10.4 70 2.9 ENE 32 41 17 22 1018.8 - 0.0
21/01:40am 16.1 11.1 10.8 71 2.8 ENE 28 46 15 25 1019.1 - 0.0
21/01:30am 16.0 11.3 10.7 71 2.8 ENE 26 37 14 20 1019.3 - 0.0
21/01:00am 16.2 10.4 10.9 71 2.8 ENE 32 43 17 23 1019.7 - 0.0
21/12:30am 16.3 11.4 11.2 72 2.7 ENE 28 39 15 21 1020.0 - 0.0
21/12:00am 16.2 11.7 11.4 73 2.6 ENE 26 39 14 21 1019.9 1019.9 0.0
 
Date/Time
EDT
Temp
°C
App
Temp
°C
Dew
Point
°C
Rel
Hum
%
Delta-T
°C
Wind Press
QNH
hPa
Press
MSL
hPa
Rain since
9am
mm
Dir  Spd
km/h
Gust
km/h
Spd
kts
Gust
kts
20/11:30pm 15.9 11.3 11.1 73 2.6 ENE 26 35 14 19 1020.2 - 0.0
20/11:00pm 15.8 11.2 11.0 73 2.6 ENE 26 35 14 19 1020.5 - 0.0
20/10:30pm 15.9 10.9 10.9 72 2.7 ENE 28 41 15 22 1020.5 - 0.0
20/10:00pm 16.0 11.5 11.4 74 2.5 ENE 26 35 14 19 1020.8 - 0.0
20/09:30pm 15.9 11.3 11.1 73 2.6 ENE 26 37 14 20 1020.9 - 0.0
20/09:00pm 15.6 11.8 11.0 74 2.4 ENE 22 30 12 16 1020.7 1020.7 0.0
20/08:30pm 15.7 12.1 10.5 71 2.7 ENE 20 28 11 15 1020.6 - 0.0
20/08:00pm 16.2 11.9 10.7 70 2.9 ENE 24 33 13 18 1020.6 - 0.0
20/07:30pm 17.0 12.0 10.8 67 3.3 ENE 28 41 15 22 1020.5 - 0.0
20/07:00pm 18.0 13.0 11.1 64 3.7 ENE 28 41 15 22 1020.6 - 0.0
20/06:30pm 18.1 13.0 11.9 67 3.4 ENE 30 39 16 21 1020.8 - 0.0
20/06:00pm 18.8 13.3 10.6 59 4.4 NE 30 41 16 22 1021.0 1021.0 0.0
20/05:30pm 18.9 13.0 10.5 58 4.5 ENE 32 39 17 21 1021.2 - 0.0
20/05:00pm 19.1 12.9 9.9 55 4.9 NE 33 44 18 24 1021.4 - 0.0
20/04:30pm 19.8 14.2 10.2 54 5.2 ENE 30 39 16 21 1021.5 - 0.0
20/04:00pm 19.8 13.7 10.5 55 5.0 ENE 33 44 18 24 1022.2 - 0.0
20/03:30pm 19.5 13.0 10.5 56 4.9 ENE 35 44 19 24 1022.1 - 0.0
20/03:00pm 19.5 13.0 10.5 56 4.8 ENE 35 50 19 27 1022.3 1022.3 0.0
20/02:30pm 19.7 13.2 10.4 55 5.0 ENE 35 46 19 25 1022.6 - 0.0
20/02:00pm 19.5 12.4 9.7 53 5.2 E 37 54 20 29 1023.0 - 0.0
20/01:30pm 19.4 12.5 9.0 51 5.5 ENE 35 54 19 29 1023.1 - 0.0
20/01:24pm 19.7 13.6 9.9 53 5.2 ENE 32 50 17 27 1023.1 - 0.0
20/01:00pm 19.1 11.9 9.3 53 5.2 ENE 37 54 20 29 1023.2 - 0.0
20/12:49pm 19.1 12.2 9.0 52 5.3 ENE 35 54 19 29 1023.4 - 0.0
20/12:30pm 19.2 12.5 9.7 54 5.0 ENE 35 50 19 27 1023.7 - 0.0
20/12:01pm 19.2 12.6 9.9 55 5.0 ENE 35 54 19 29 1023.6 - 0.0
20/12:00pm 18.8 11.6 9.3 54 5.0 ENE 37 54 20 29 1023.8 1023.8 0.0
20/11:30am 18.5 10.9 9.0 54 5.0 ENE 39 54 21 29 1023.8 - 0.0
20/11:00am 18.1 11.2 8.7 54 4.9 E 35 48 19 26 1024.1 - 0.0
20/10:30am 17.9 10.9 8.5 54 4.8 E 35 50 19 27 1024.1 - 0.0
20/10:17am 17.7 10.7 8.3 54 4.8 E 35 54 19 29 1023.9 - 0.0
20/10:00am 17.5 10.9 8.4 55 4.7 E 33 46 18 25 1023.9 - 0.0
20/09:30am 16.4 9.8 7.6 56 4.4 E 32 41 17 22 1024.0 - 0.0
20/09:00am 15.2 8.7 6.7 57 4.1 E 30 41 16 22 1023.7 1023.7 0.0
20/08:30am 14.5 8.8 6.8 60 3.7 E 26 37 14 20 1023.8 - 0.0
20/08:00am 12.9 8.3 6.3 64 3.1 ESE 20 30 11 16 1023.9 - 0.0
20/07:30am 11.4 7.2 5.9 69 2.6 ESE 17 24 9 13 1024.1 - 0.0
20/07:00am 10.5 5.9 5.7 72 2.2 ESE 19 24 10 13 1024.3 - 0.0
20/06:30am 9.7 5.5 5.5 75 1.9 ESE 17 20 9 11 1024.2 - 0.0
20/06:00am 9.9 5.7 5.9 76 1.8 ESE 17 20 9 11 1024.2 1024.2 0.0
20/05:30am 10.3 6.2 6.3 76 1.9 ESE 17 20 9 11 1024.4 - 0.0
20/05:00am 11.0 6.6 6.6 74 2.1 ESE 19 24 10 13 1024.5 - 0.0
20/04:30am 11.7 6.8 7.0 73 2.2 ESE 22 30 12 16 1024.4 - 0.0
20/04:00am 12.4 8.2 7.5 72 2.4 ESE 19 24 10 13 1024.6 - 0.0
20/03:30am 12.3 8.2 7.8 74 2.2 E 19 30 10 16 1024.4 - 0.0
20/03:00am 13.0 8.3 7.9 71 2.5 E 22 32 12 17 1024.4 1024.4 0.0
20/02:30am 14.2 8.1 8.4 68 2.9 E 30 39 16 21 1024.3 - 0.0
20/02:00am 15.6 10.5 9.1 65 3.3 E 26 41 14 22 1024.3 - 0.0
20/01:30am 16.0 10.9 10.5 70 2.9 ENE 28 39 15 21 1024.1 - 0.0
20/01:00am 16.1 11.1 10.8 71 2.8 ENE 28 39 15 21 1023.8 - 0.0
20/12:30am 16.2 11.6 11.2 72 2.7 ENE 26 35 14 19 1023.6 - 0.0
20/12:00am 16.4 11.6 11.6 73 2.6 NE 28 39 15 21 1023.4 1023.4 0.0
 
Date/Time
EDT
Temp
°C
App
Temp
°C
Dew
Point
°C
Rel
Hum
%
Delta-T
°C
Wind Press
QNH
hPa
Press
MSL
hPa
Rain since
9am
mm
Dir  Spd
km/h
Gust
km/h
Spd
kts
Gust
kts
19/11:30pm 16.4 12.0 11.6 73 2.6 NE 26 35 14 19 1023.5 - 0.0
19/11:00pm 16.5 11.8 11.9 74 2.5 NE 28 35 15 19 1023.7 - 0.0
19/10:30pm 16.4 12.0 11.8 74 2.5 NE 26 35 14 19 1023.6 - 0.0
19/10:00pm 16.8 12.5 12.1 74 2.6 NE 26 35 14 19 1023.4 - 0.0
19/09:30pm 16.7 13.7 12.5 76 2.3 NE 20 30 11 16 1023.2 - 0.0
19/09:00pm 17.2 14.2 12.7 75 2.5 NE 20 28 11 15 1022.6 1022.6 0.0
19/08:30pm 17.4 15.4 12.7 74 2.6 NE 15 20 8 11 1022.2 - 0.0
19/08:00pm 17.6 16.0 12.7 73 2.7 NNE 13 17 7 9 1022.0 - 0.0
19/07:30pm 17.8 16.6 12.7 72 2.8 NNE 11 13 6 7 1021.9 - 0.0
19/07:00pm 18.3 16.9 12.3 68 3.3 NNE 11 15 6 8 1021.8 - 0.0
19/06:30pm 18.2 16.8 12.2 68 3.3 NNE 11 15 6 8 1021.8 - 0.0
19/06:00pm 18.2 16.5 12.4 69 3.2 N 13 19 7 10 1021.8 1021.8 0.0
19/05:30pm 19.1 16.1 11.9 63 4.0 NE 19 20 10 11 1021.8 - 0.0
19/05:00pm 19.6 16.7 12.4 63 4.0 N 19 22 10 12 1022.0 - 0.0
19/04:30pm 20.5 17.7 12.5 60 4.5 N 19 24 10 13 1022.0 - 0.0
19/04:00pm 19.8 16.5 11.6 59 4.5 NNE 20 26 11 14 1021.7 - 0.0
19/03:30pm 19.6 15.7 10.9 57 4.7 NNE 22 30 12 16 1021.8 - 0.0
19/03:00pm 20.0 16.2 11.2 57 4.8 NE 22 28 12 15 1021.8 1021.8 0.0
19/02:30pm 20.2 16.1 11.4 57 4.9 NNE 24 33 13 18 1021.8 - 0.0
19/02:00pm 20.6 16.7 12.1 58 4.8 NE 24 33 13 18 1021.8 - 0.0
19/01:30pm 20.6 16.0 11.2 55 5.2 NE 26 35 14 19 1021.8 - 0.0
19/01:00pm 21.2 16.7 11.5 54 5.4 ENE 26 35 14 19 1021.9 - 0.0
19/12:30pm 18.9 14.0 9.9 56 4.8 ENE 26 41 14 22 1021.8 - 0.0
19/12:00pm 19.3 14.1 10.3 56 4.8 ENE 28 37 15 20 1021.9 1021.9 0.0
19/11:30am 18.6 13.3 9.9 57 4.6 E 28 41 15 22 1021.8 - 0.0
19/11:00am 18.2 12.8 9.5 57 4.6 E 28 37 15 20 1021.6 - 0.0
19/10:30am 18.0 13.4 10.9 63 3.8 E 26 37 14 20 1021.3 - 0.0
19/10:00am 16.9 11.7 10.1 64 3.6 E 28 41 15 22 1021.0 - 0.0
19/09:30am 17.4 12.3 10.5 64 3.7 E 28 44 15 24 1020.5 - 0.0
19/09:00am 16.9 14.1 11.2 69 3.1 E 17 28 9 15 1020.5 1020.5 0.0
19/08:30am 13.8 12.2 10.2 79 1.9 S 9 11 5 6 1020.1 - 0.0
19/08:00am 12.1 9.5 9.5 84 1.3 S 13 17 7 9 1019.7 - 0.0

Other Formats:

Comma delimited format used in spreadsheet applications
http://www.bom.gov.au/fwo/IDT60801/IDT60801.94953.axf

JavaScript Object Notation format (JSON) in row-major order
http://www.bom.gov.au/fwo/IDT60801/IDT60801.94953.json